Historyczne dane pomiarowe

Dodano dane terminowe – wersja testowa.

Dane z okresu 1951-2019

Wersja bazy: 1.34 [2019-03-16, lista zmian], aktualizacja planowana na 2019-04-15

Dane meteo z obszaru Polski uzyskane na podstawie danych udostępnionych przez Instytut Meteorologii i Gospodarki Wodnej – Państwowy Instytut Badawczy.

 

Wybierz Datę:    

       

TemperaturaWilgotnośćWiatrCiśnienieOpadyŚniegCzas trwania zjawisk
 Stacja t tx tn tng RH VA  wxwx mslp ppp RRR   cm mm wxwxwxwxwxwxwx
1987-08-14 13.7 19.4 5.9 3.1 83.3- 5.3 3.3---- 2.9------------
1987-08-13 13.9 18.0 10.9 9.6 89.5- 7.3 2.7---- 0.0------------
1987-08-12 11.6 12.5 11.3 9.9 92.5- 8.0 7.7---- 4.6------------
1987-08-11 13.1 16.4 11.8 11.1 82.5- 5.3 7.7---- 0.0------------
1987-08-10 13.4 16.6 11.5 9.1 95.0- 8.0 2.3---- 21.2------------
1987-08-09 14.8 20.4 8.6 3.5 78.8- 5.0 2.0---- 2.4------------
1987-08-08 13.6 20.4 6.6 1.6 69.0- 4.0 4.3---- 0.0------------
1987-08-07 13.2 17.3 9.9 7.2 71.8- 5.0 3.3---- 0.0------------
1987-08-06 12.2 17.2 7.0 3.5 85.8- 6.0 3.3---- 0.7------------
1987-08-05 12.1 17.6 5.9 0.8 77.5- 4.0 3.3---- 0.0------------
1987-08-04 12.2 18.4 6.4 2.1 81.5- 5.3 2.7---- 0.8------------
1987-08-03 13.3 17.9 9.0 5.2 79.3- 5.0 3.0---- 3.6------------
1987-08-02 14.7 18.1 11.3 8.3 78.8- 4.0 2.3---- 0.0------------
1987-08-01 14.3 19.2 9.5 5.5 88.3- 5.3 2.7---- 7.9------------
1987-07-31 15.2 17.4 11.6 7.7 91.0- 6.7 2.7---- 13.6------------
1987-07-30 14.9 19.9 6.5 3.2 74.0- 3.7 2.0---- 0.0------------
1987-07-29 13.7 17.0 10.2 5.9 83.3- 5.0 3.7---- 0.0------------
1987-07-28 13.3 17.8 10.1 8.1 84.8- 6.3 3.3---- 6.0------------
1987-07-27 12.0 16.2 7.3 6.9 77.8- 4.0 6.7---- 2.0------------
1987-07-26 13.9 18.9 9.7 2.9 75.8- 5.3 2.3---- 0.0------------
1987-07-25 16.9 21.2 12.2 7.4 79.3- 5.3 4.0---- 0.1------------
1987-07-24 18.7 24.2 11.8 10.2 81.3- 3.7 2.7---- 0.0------------
1987-07-23 19.3 22.9 16.8 14.0 94.0- 8.0 2.3---- 0.0------------
1987-07-22 17.4 25.2 12.9 10.6 84.3- 2.7 2.0---- 0.0------------
1987-07-21 18.5 22.1 16.2 13.0 90.3- 6.7 1.3---- 0.0------------
1987-07-20 17.6 22.5 15.6 13.0 89.3- 6.0 3.3---- 7.2------------
1987-07-19 17.0 22.6 10.9 8.4 77.5- 1.7 3.7---- 0.0------------
1987-07-18 18.5 23.6 14.7 13.3 79.8- 0.7 3.3---- 0.0------------
1987-07-17 18.1 22.8 11.6 7.9 75.8- 1.0 6.3---- 0.0------------
1987-07-16 16.2 22.5 6.4 2.6 75.3- 0.7 2.7---- 0.0------------
1987-07-15 14.9 20.3 6.9 2.4 84.5- 1.3 3.7---- 0.0------------
1987-07-14 14.5 18.0 10.3 8.1 86.3- 2.7 4.7---- 0.1------------
1987-07-13 13.8 17.3 11.7 9.5 91.8- 4.3 2.7---- 3.8------------
1987-07-12 15.0 18.0 12.3 11.0 94.0- 5.0 3.3---- 2.0------------
1987-07-11 11.7 16.5 8.4 5.8 94.5- 2.7 4.3---- 1.7------------
1987-07-10 14.3 17.7 9.9 7.6 76.8- 1.3 5.0---- 0.7------------
1987-07-09 17.1 24.5 14.5 14.3 85.5- 6.0 2.7---- 0.5------------
1987-07-08 21.1 27.7 12.4 8.2 69.8- 1.7 3.3---- 3.0------------
1987-07-07 19.3 26.6 8.4 4.4 70.3- 0.0 2.3---- 0.0------------
1987-07-06 16.3 22.6 7.0 1.9 74.8- 0.3 3.0---- 0.0------------
1987-07-05 16.0 21.0 10.3 6.3 75.3- 0.7 2.7---- 0.0------------
1987-07-04 15.0 19.6 7.4 3.3 76.0- 0.7 3.0---- 0.0------------
1987-07-03 15.5 20.5 7.0 2.6 77.0- 0.3 2.3---- 0.0------------
1987-07-02 17.6 21.7 14.5 12.4 72.5- 0.7 3.7---- 0.0------------
1987-07-01 23.3 29.5 19.2 17.6 87.5- 1.3 3.3---- 0.0------------
1987-06-30 21.9 25.6 18.3 17.3 85.8- 1.0 4.0---- 0.0------------
1987-06-29 15.9 22.0 6.5 1.6 75.5- 4.3 2.3---- 0.0------------
1987-06-28 14.3 17.4 11.2 8.8 89.5- 6.0 3.0---- 3.3------------
1987-06-27 16.2 18.5 13.5 9.9 92.5- 5.7 2.3---- 2.2------------
1987-06-26 14.2 19.8 6.4 2.2 81.5- 5.3 2.7---- 5.6------------
1987-06-25 11.4 15.6 9.5 6.9 93.8- 5.7 2.3---- 14.8------------
1987-06-24 16.1 19.4 12.9 10.6 81.3- 3.7 3.0---- 1.2------------
1987-06-23 14.8 22.0 10.0 5.6 84.3- 4.3 2.7---- 5.3------------
1987-06-22 18.1 23.2 9.5 5.6 73.8- 1.7 2.0---- 0.0------------
1987-06-21 16.8 23.1 8.0 7.7 77.5- 1.7 2.7---- 0.0------------
1987-06-20 13.7 20.6 5.4 2.3 75.3- 4.3 2.0---- 0.0------------
1987-06-19 10.8 15.9 6.0 4.6 88.0- 4.0 2.7---- 0.0------------
1987-06-18 11.7 17.6 2.6 -0.6 77.5- 3.3 3.0---- 0.0------------
1987-06-17 12.2 15.2 11.0 9.2 87.0- 3.7 2.3---- 0.0------------
1987-06-16 15.8 21.7 11.1 11.2 93.3- 4.7 4.3---- 3.0------------
495.9 ms

 

Źródłem pochodzenia danych jest Instytut Meteorologii i Gospodarki Wodnej – Państwowy Instytut Badawczy. Dane Instytutu Meteorologii i Gospodarki Wodnej – Państwowego Instytutu Badawczego zostały przetworzone.

Dane źródłowe można odnaleźć na stronie https://dane.imgw.pl